Station Historical Data
Daily Summary for February 17, 2017 Units:  Both    English   Metric
« Previous Day
Next Day »
Daily Weekly Monthly Yearly Custom
  High: Low: Average:
Temperature: 39.0 °F /  3.9 °C 17.4 °F /  -8.1 °C 29.3 °F /  -1.5 °C
Dew Point: 25.7 °F /  -3.5 °C 13.2 °F /  -10.4 °C 19.7 °F /  -6.8 °C
Humidity: 85% 50% 68%
Wind Speed: 6.0mph /  9.7km/h - 1.5mph /  2.4km/h
Wind Gust: 12.0mph /  19.3km/h - -
Wind- - SSW
Pressure: 29.98 in /  1015.1 hPa 29.75 in /  1007.3 hPa -
Precipitation: 0.00 in /  0 mm    
Historical Graphs
 
 
Tabular Data for February 17, 2017
Time Temperature Dew Point Pressure Wind Wind Speed Wind Gust Humidity Rainfall Rate (Hourly)
00:04 22.6 °F /  -5.2 °C 15.9 °F /  -8.9 °C 29.97in /  1014.8hPa WSW 2.0mph /  3.2km/h 6.0mph /  9.7km/h 75% 0.00in /  0mm
00:09 22.6 °F /  -5.2 °C 15.9 °F /  -8.9 °C 29.98in /  1015.1hPa WSW 3.0mph /  4.8km/h 6.0mph /  9.7km/h 75% 0.00in /  0mm
00:14 22.7 °F /  -5.2 °C 16.0 °F /  -8.9 °C 29.98in /  1015.1hPa West 5.0mph /  8km/h 7.0mph /  11.3km/h 75% 0.00in /  0mm
00:19 22.6 °F /  -5.2 °C 15.9 °F /  -8.9 °C 29.98in /  1015.1hPa West 4.0mph /  6.4km/h 8.0mph /  12.9km/h 75% 0.00in /  0mm
00:24 22.6 °F /  -5.2 °C 16.2 °F /  -8.8 °C 29.98in /  1015.1hPa West 4.0mph /  6.4km/h 8.0mph /  12.9km/h 76% 0.00in /  0mm
00:29 22.7 °F /  -5.2 °C 16.3 °F /  -8.7 °C 29.98in /  1015.1hPa WNW 4.0mph /  6.4km/h 7.0mph /  11.3km/h 76% 0.00in /  0mm
00:34 22.6 °F /  -5.2 °C 16.2 °F /  -8.8 °C 29.98in /  1015.1hPa West 5.0mph /  8km/h 12.0mph /  19.3km/h 76% 0.00in /  0mm
00:39 22.6 °F /  -5.2 °C 16.2 °F /  -8.8 °C 29.98in /  1015.1hPa NE 5.0mph /  8km/h 9.0mph /  14.5km/h 76% 0.00in /  0mm
00:44 22.7 °F /  -5.2 °C 16.0 °F /  -8.9 °C 29.98in /  1015.1hPa West 4.0mph /  6.4km/h 8.0mph /  12.9km/h 75% 0.00in /  0mm
00:49 22.6 °F /  -5.2 °C 15.9 °F /  -8.9 °C 29.98in /  1015.1hPa NW 5.0mph /  8km/h 10.0mph /  16.1km/h 75% 0.00in /  0mm
00:54 22.5 °F /  -5.3 °C 15.8 °F /  -9 °C 29.97in /  1014.8hPa NW 5.0mph /  8km/h 10.0mph /  16.1km/h 75% 0.00in /  0mm
00:59 22.4 °F /  -5.3 °C 16.0 °F /  -8.9 °C 29.97in /  1014.8hPa NW 4.0mph /  6.4km/h 8.0mph /  12.9km/h 76% 0.00in /  0mm
01:04 22.4 °F /  -5.3 °C 16.0 °F /  -8.9 °C 29.97in /  1014.8hPa NW 3.0mph /  4.8km/h 9.0mph /  14.5km/h 76% 0.00in /  0mm
01:09 22.4 °F /  -5.3 °C 16.0 °F /  -8.9 °C 29.97in /  1014.8hPa NW 6.0mph /  9.7km/h 11.0mph /  17.7km/h 76% 0.00in /  0mm
01:14 22.3 °F /  -5.4 °C 15.9 °F /  -8.9 °C 29.97in /  1014.8hPa NW 2.0mph /  3.2km/h 9.0mph /  14.5km/h 76% 0.00in /  0mm
01:19 22.2 °F /  -5.4 °C 15.8 °F /  -9 °C 29.97in /  1014.8hPa NNW 3.0mph /  4.8km/h 8.0mph /  12.9km/h 76% 0.00in /  0mm
01:24 22.2 °F /  -5.4 °C 15.8 °F /  -9 °C 29.97in /  1014.8hPa NNW 4.0mph /  6.4km/h 8.0mph /  12.9km/h 76% 0.00in /  0mm
01:29 22.1 °F /  -5.5 °C 15.7 °F /  -9.1 °C 29.97in /  1014.8hPa NW 4.0mph /  6.4km/h 10.0mph /  16.1km/h 76% 0.00in /  0mm
01:34 22.2 °F /  -5.4 °C 15.8 °F /  -9 °C 29.97in /  1014.8hPa North 2.0mph /  3.2km/h 7.0mph /  11.3km/h 76% 0.00in /  0mm
01:39 22.2 °F /  -5.4 °C 16.1 °F /  -8.8 °C 29.97in /  1014.8hPa NW 3.0mph /  4.8km/h 7.0mph /  11.3km/h 77% 0.00in /  0mm
01:44 22.2 °F /  -5.4 °C 16.1 °F /  -8.8 °C 29.97in /  1014.8hPa NNW 2.0mph /  3.2km/h 5.0mph /  8km/h 77% 0.00in /  0mm
01:49 22.2 °F /  -5.4 °C 16.1 °F /  -8.8 °C 29.97in /  1014.8hPa WNW 1.0mph /  1.6km/h 7.0mph /  11.3km/h 77% 0.00in /  0mm
01:54 22.2 °F /  -5.4 °C 16.1 °F /  -8.8 °C 29.97in /  1014.8hPa NW 3.0mph /  4.8km/h 7.0mph /  11.3km/h 77% 0.00in /  0mm
01:59 22.4 °F /  -5.3 °C 16.3 °F /  -8.7 °C 29.97in /  1014.8hPa NW 3.0mph /  4.8km/h 6.0mph /  9.7km/h 77% 0.00in /  0mm
02:04 22.5 °F /  -5.3 °C 16.1 °F /  -8.8 °C 29.97in /  1014.8hPa NW 3.0mph /  4.8km/h 7.0mph /  11.3km/h 76% 0.00in /  0mm
02:09 22.5 °F /  -5.3 °C 16.1 °F /  -8.8 °C 29.97in /  1014.8hPa NW 2.0mph /  3.2km/h 7.0mph /  11.3km/h 76% 0.00in /  0mm
02:14 22.5 °F /  -5.3 °C 16.1 °F /  -8.8 °C 29.97in /  1014.8hPa NW 3.0mph /  4.8km/h 7.0mph /  11.3km/h 76% 0.00in /  0mm
02:19 22.6 °F /  -5.2 °C 16.2 °F /  -8.8 °C 29.97in /  1014.8hPa NW 5.0mph /  8km/h 6.0mph /  9.7km/h 76% 0.00in /  0mm
02:24 22.6 °F /  -5.2 °C 16.2 °F /  -8.8 °C 29.97in /  1014.8hPa NW 3.0mph /  4.8km/h 7.0mph /  11.3km/h 76% 0.00in /  0mm
02:29 22.7 °F /  -5.2 °C 16.3 °F /  -8.7 °C 29.97in /  1014.8hPa NW 3.0mph /  4.8km/h 7.0mph /  11.3km/h 76% 0.00in /  0mm
02:34 22.7 °F /  -5.2 °C 16.3 °F /  -8.7 °C 29.97in /  1014.8hPa NW 3.0mph /  4.8km/h 7.0mph /  11.3km/h 76% 0.00in /  0mm
02:39 22.7 °F /  -5.2 °C 16.3 °F /  -8.7 °C 29.97in /  1014.8hPa NW 6.0mph /  9.7km/h 8.0mph /  12.9km/h 76% 0.00in /  0mm
02:44 22.6 °F /  -5.2 °C 16.2 °F /  -8.8 °C 29.97in /  1014.8hPa WNW 3.0mph /  4.8km/h 8.0mph /  12.9km/h 76% 0.00in /  0mm
02:49 22.5 °F /  -5.3 °C 16.1 °F /  -8.8 °C 29.96in /  1014.4hPa NNW 5.0mph /  8km/h 8.0mph /  12.9km/h 76% 0.00in /  0mm
02:54 22.5 °F /  -5.3 °C 16.1 °F /  -8.8 °C 29.96in /  1014.4hPa NW 3.0mph /  4.8km/h 8.0mph /  12.9km/h 76% 0.00in /  0mm
02:59 22.4 °F /  -5.3 °C 16.0 °F /  -8.9 °C 29.96in /  1014.4hPa WNW 3.0mph /  4.8km/h 7.0mph /  11.3km/h 76% 0.00in /  0mm
03:04 22.3 °F /  -5.4 °C 15.9 °F /  -8.9 °C 29.96in /  1014.4hPa NW 3.0mph /  4.8km/h 7.0mph /  11.3km/h 76% 0.00in /  0mm
03:09 22.2 °F /  -5.4 °C 15.8 °F /  -9 °C 29.96in /  1014.4hPa WNW 1.0mph /  1.6km/h 4.0mph /  6.4km/h 76% 0.00in /  0mm
03:14 22.1 °F /  -5.5 °C 16.0 °F /  -8.9 °C 29.96in /  1014.4hPa NW 2.0mph /  3.2km/h 3.0mph /  4.8km/h 77% 0.00in /  0mm
03:19 22.0 °F /  -5.6 °C 15.6 °F /  -9.1 °C 29.96in /  1014.4hPa WNW 2.0mph /  3.2km/h 5.0mph /  8km/h 76% 0.00in /  0mm
03:24 21.9 °F /  -5.6 °C 15.8 °F /  -9 °C 29.96in /  1014.4hPa WNW 2.0mph /  3.2km/h 5.0mph /  8km/h 77% 0.00in /  0mm
03:29 21.8 °F /  -5.7 °C 15.7 °F /  -9.1 °C 29.96in /  1014.4hPa WNW 3.0mph /  4.8km/h 4.0mph /  6.4km/h 77% 0.00in /  0mm
03:34 21.8 °F /  -5.7 °C 15.7 °F /  -9.1 °C 29.96in /  1014.4hPa NNW 2.0mph /  3.2km/h 6.0mph /  9.7km/h 77% 0.00in /  0mm
03:39 21.8 °F /  -5.7 °C 15.7 °F /  -9.1 °C 29.97in /  1014.8hPa NNW 2.0mph /  3.2km/h 3.0mph /  4.8km/h 77% 0.00in /  0mm
03:44 21.7 °F /  -5.7 °C 15.6 °F /  -9.1 °C 29.97in /  1014.8hPa NW 2.0mph /  3.2km/h 4.0mph /  6.4km/h 77% 0.00in /  0mm
03:49 21.6 °F /  -5.8 °C 15.5 °F /  -9.2 °C 29.96in /  1014.4hPa NW 2.0mph /  3.2km/h 3.0mph /  4.8km/h 77% 0.00in /  0mm
03:54 21.4 °F /  -5.9 °C 15.3 °F /  -9.3 °C 29.97in /  1014.8hPa NW 1.0mph /  1.6km/h 3.0mph /  4.8km/h 77% 0.00in /  0mm
03:59 21.1 °F /  -6.1 °C 15.3 °F /  -9.3 °C 29.97in /  1014.8hPa NW 1.0mph /  1.6km/h 3.0mph /  4.8km/h 78% 0.00in /  0mm
04:04 20.7 °F /  -6.3 °C 14.9 °F /  -9.5 °C 29.97in /  1014.8hPa NNW 1.0mph /  1.6km/h 3.0mph /  4.8km/h 78% 0.00in /  0mm
04:09 20.5 °F /  -6.4 °C 14.7 °F /  -9.6 °C 29.97in /  1014.8hPa NW 1.0mph /  1.6km/h 3.0mph /  4.8km/h 78% 0.00in /  0mm
04:14 20.2 °F /  -6.6 °C 14.7 °F /  -9.6 °C 29.97in /  1014.8hPa Calm     79% 0.00in /  0mm
04:19 19.8 °F /  -6.8 °C 14.3 °F /  -9.8 °C 29.97in /  1014.8hPa Calm     79% 0.00in /  0mm
04:24 19.6 °F /  -6.9 °C 14.4 °F /  -9.8 °C 29.97in /  1014.8hPa Calm     80% 0.00in /  0mm
04:29 19.3 °F /  -7.1 °C 14.1 °F /  -9.9 °C 29.97in /  1014.8hPa Calm     80% 0.00in /  0mm
04:34 18.9 °F /  -7.3 °C 14.0 °F /  -10 °C 29.97in /  1014.8hPa Calm     81% 0.00in /  0mm
04:39 18.6 °F /  -7.4 °C 13.7 °F /  -10.2 °C 29.97in /  1014.8hPa Calm     81% 0.00in /  0mm
04:44 18.3 °F /  -7.6 °C 13.7 °F /  -10.2 °C 29.96in /  1014.4hPa Calm     82% 0.00in /  0mm
04:49 18.0 °F /  -7.8 °C 13.4 °F /  -10.3 °C 29.96in /  1014.4hPa Calm     82% 0.00in /  0mm
04:54 17.9 °F /  -7.8 °C 13.6 °F /  -10.2 °C 29.95in /  1014.1hPa Calm     83% 0.00in /  0mm
04:59 17.9 °F /  -7.8 °C 13.6 °F /  -10.2 °C 29.95in /  1014.1hPa Calm     83% 0.00in /  0mm
05:04 17.5 °F /  -8.1 °C 13.2 °F /  -10.4 °C 29.95in /  1014.1hPa Calm     83% 0.00in /  0mm
05:09 17.4 °F /  -8.1 °C 13.4 °F /  -10.3 °C 29.95in /  1014.1hPa Calm     84% 0.00in /  0mm
05:14 17.4 °F /  -8.1 °C 13.4 °F /  -10.3 °C 29.95in /  1014.1hPa Calm     84% 0.00in /  0mm
05:19 17.6 °F /  -8 °C 13.9 °F /  -10.1 °C 29.95in /  1014.1hPa Calm     85% 0.00in /  0mm
05:24 17.8 °F /  -7.9 °C 14.1 °F /  -9.9 °C 29.95in /  1014.1hPa Calm     85% 0.00in /  0mm
05:29 18.0 °F /  -7.8 °C 14.3 °F /  -9.8 °C 29.95in /  1014.1hPa Calm     85% 0.00in /  0mm
05:39 18.4 °F /  -7.6 °C 14.6 °F /  -9.7 °C 29.94in /  1013.8hPa Calm     85% 0.00in /  0mm
05:44 18.5 °F /  -7.5 °C 14.7 °F /  -9.6 °C 29.95in /  1014.1hPa Calm     85% 0.00in /  0mm
05:49 18.8 °F /  -7.3 °C 15.0 °F /  -9.4 °C 29.95in /  1014.1hPa Calm     85% 0.00in /  0mm
05:54 18.8 °F /  -7.3 °C 14.8 °F /  -9.6 °C 29.95in /  1014.1hPa Calm     84% 0.00in /  0mm
05:59 18.9 °F /  -7.3 °C 14.9 °F /  -9.5 °C 29.95in /  1014.1hPa Calm     84% 0.00in /  0mm
06:04 18.9 °F /  -7.3 °C 14.9 °F /  -9.5 °C 29.95in /  1014.1hPa Calm     84% 0.00in /  0mm
06:09 19.0 °F /  -7.2 °C 15.0 °F /  -9.4 °C 29.95in /  1014.1hPa Calm     84% 0.00in /  0mm
06:14 19.2 °F /  -7.1 °C 15.4 °F /  -9.2 °C 29.94in /  1013.8hPa Calm     85% 0.00in /  0mm
06:19 19.4 °F /  -7 °C 15.6 °F /  -9.1 °C 29.94in /  1013.8hPa Calm     85% 0.00in /  0mm
06:24 19.6 °F /  -6.9 °C 15.8 °F /  -9 °C 29.94in /  1013.8hPa Calm     85% 0.00in /  0mm
06:29 20.0 °F /  -6.7 °C 16.2 °F /  -8.8 °C 29.94in /  1013.8hPa Calm     85% 0.00in /  0mm
06:34 20.3 °F /  -6.5 °C 16.2 °F /  -8.8 °C 29.94in /  1013.8hPa Calm     84% 0.00in /  0mm
06:39 20.5 °F /  -6.4 °C 16.4 °F /  -8.7 °C 29.94in /  1013.8hPa Calm     84% 0.00in /  0mm
06:44 20.6 °F /  -6.3 °C 16.5 °F /  -8.6 °C 29.94in /  1013.8hPa Calm     84% 0.00in /  0mm
06:49 20.8 °F /  -6.2 °C 16.5 °F /  -8.6 °C 29.94in /  1013.8hPa Calm     83% 0.00in /  0mm
06:54 20.9 °F /  -6.2 °C 16.5 °F /  -8.6 °C 29.94in /  1013.8hPa Calm     83% 0.00in /  0mm
06:59 21.0 °F /  -6.1 °C 16.4 °F /  -8.7 °C 29.95in /  1014.1hPa Calm     82% 0.00in /  0mm
07:04 21.1 °F /  -6.1 °C 16.5 °F /  -8.6 °C 29.94in /  1013.8hPa Calm     82% 0.00in /  0mm
07:09 21.2 °F /  -6 °C 16.6 °F /  -8.6 °C 29.94in /  1013.8hPa Calm     82% 0.00in /  0mm
07:14 21.3 °F /  -5.9 °C 16.4 °F /  -8.7 °C 29.95in /  1014.1hPa Calm     81% 0.00in /  0mm
07:19 21.5 °F /  -5.8 °C 16.6 °F /  -8.6 °C 29.95in /  1014.1hPa Calm     81% 0.00in /  0mm
07:24 21.6 °F /  -5.8 °C 16.7 °F /  -8.5 °C 29.95in /  1014.1hPa Calm     81% 0.00in /  0mm
07:29 21.6 °F /  -5.8 °C 16.7 °F /  -8.5 °C 29.95in /  1014.1hPa Calm     81% 0.00in /  0mm
07:34 21.7 °F /  -5.7 °C 16.8 °F /  -8.4 °C 29.95in /  1014.1hPa Calm     81% 0.00in /  0mm
07:39 21.7 °F /  -5.7 °C 16.5 °F /  -8.6 °C 29.95in /  1014.1hPa Calm     80% 0.00in /  0mm
07:44 21.8 °F /  -5.7 °C 16.6 °F /  -8.6 °C 29.95in /  1014.1hPa Calm     80% 0.00in /  0mm
07:49 22.0 °F /  -5.6 °C 16.8 °F /  -8.4 °C 29.96in /  1014.4hPa Calm     80% 0.00in /  0mm
07:54 22.0 °F /  -5.6 °C 16.8 °F /  -8.4 °C 29.96in /  1014.4hPa South 2.0mph /  3.2km/h 3.0mph /  4.8km/h 80% 0.00in /  0mm
07:59 21.8 °F /  -5.7 °C 16.6 °F /  -8.6 °C 29.96in /  1014.4hPa South 1.0mph /  1.6km/h 3.0mph /  4.8km/h 80% 0.00in /  0mm
08:04 21.7 °F /  -5.7 °C 16.5 °F /  -8.6 °C 29.96in /  1014.4hPa South 1.0mph /  1.6km/h 2.0mph /  3.2km/h 80% 0.00in /  0mm
08:09 21.8 °F /  -5.7 °C 16.6 °F /  -8.6 °C 29.97in /  1014.8hPa South 1.0mph /  1.6km/h 3.0mph /  4.8km/h 80% 0.00in /  0mm
08:14 21.9 °F /  -5.6 °C 16.7 °F /  -8.5 °C 29.97in /  1014.8hPa South 1.0mph /  1.6km/h 3.0mph /  4.8km/h 80% 0.00in /  0mm
08:19 22.2 °F /  -5.4 °C 17.0 °F /  -8.3 °C 29.97in /  1014.8hPa SE 1.0mph /  1.6km/h 4.0mph /  6.4km/h 80% 0.00in /  0mm
08:24 22.4 °F /  -5.3 °C 16.9 °F /  -8.4 °C 29.97in /  1014.8hPa SE 2.0mph /  3.2km/h 3.0mph /  4.8km/h 79% 0.00in /  0mm
08:29 22.6 °F /  -5.2 °C 16.8 °F /  -8.4 °C 29.97in /  1014.8hPa SSE 3.0mph /  4.8km/h 3.0mph /  4.8km/h 78% 0.00in /  0mm
08:34 22.9 °F /  -5.1 °C 17.1 °F /  -8.3 °C 29.96in /  1014.4hPa SSE 1.0mph /  1.6km/h 4.0mph /  6.4km/h 78% 0.00in /  0mm
08:39 23.2 °F /  -4.9 °C 17.4 °F /  -8.1 °C 29.97in /  1014.8hPa SSE 2.0mph /  3.2km/h 4.0mph /  6.4km/h 78% 0.00in /  0mm
08:44 23.4 °F /  -4.8 °C 17.3 °F /  -8.2 °C 29.97in /  1014.8hPa SSE 1.0mph /  1.6km/h 3.0mph /  4.8km/h 77% 0.00in /  0mm
08:49 23.8 °F /  -4.6 °C 17.3 °F /  -8.2 °C 29.97in /  1014.8hPa SE 1.0mph /  1.6km/h 4.0mph /  6.4km/h 76% 0.00in /  0mm
08:54 24.0 °F /  -4.4 °C 17.5 °F /  -8.1 °C 29.97in /  1014.8hPa SE 1.0mph /  1.6km/h 4.0mph /  6.4km/h 76% 0.00in /  0mm
08:59 24.0 °F /  -4.4 °C 17.5 °F /  -8.1 °C 29.96in /  1014.4hPa SSE 1.0mph /  1.6km/h 4.0mph /  6.4km/h 76% 0.00in /  0mm
09:04 24.3 °F /  -4.3 °C 17.5 °F /  -8.1 °C 29.96in /  1014.4hPa SSE 2.0mph /  3.2km/h 4.0mph /  6.4km/h 75% 0.00in /  0mm
09:09 24.6 °F /  -4.1 °C 17.8 °F /  -7.9 °C 29.96in /  1014.4hPa SSE 2.0mph /  3.2km/h 4.0mph /  6.4km/h 75% 0.00in /  0mm
09:14 25.0 °F /  -3.9 °C 17.9 °F /  -7.8 °C 29.96in /  1014.4hPa Calm   3.0mph /  4.8km/h 74% 0.00in /  0mm
09:19 25.2 °F /  -3.8 °C 18.1 °F /  -7.7 °C 29.96in /  1014.4hPa ESE 1.0mph /  1.6km/h 3.0mph /  4.8km/h 74% 0.00in /  0mm
09:24 25.3 °F /  -3.7 °C 17.9 °F /  -7.8 °C 29.96in /  1014.4hPa SE 1.0mph /  1.6km/h 4.0mph /  6.4km/h 73% 0.00in /  0mm
09:29 25.4 °F /  -3.7 °C 17.9 °F /  -7.8 °C 29.96in /  1014.4hPa SSE 1.0mph /  1.6km/h 4.0mph /  6.4km/h 73% 0.00in /  0mm
09:34 25.3 °F /  -3.7 °C 17.9 °F /  -7.8 °C 29.96in /  1014.4hPa NE 2.0mph /  3.2km/h 3.0mph /  4.8km/h 73% 0.00in /  0mm
09:39 25.9 °F /  -3.4 °C 18.4 °F /  -7.6 °C 29.96in /  1014.4hPa East 2.0mph /  3.2km/h 4.0mph /  6.4km/h 73% 0.00in /  0mm
09:44 26.6 °F /  -3 °C 18.8 °F /  -7.3 °C 29.97in /  1014.8hPa Calm   3.0mph /  4.8km/h 72% 0.00in /  0mm
09:49 26.7 °F /  -2.9 °C 18.6 °F /  -7.4 °C 29.97in /  1014.8hPa NNW 1.0mph /  1.6km/h 3.0mph /  4.8km/h 71% 0.00in /  0mm
09:54 26.7 °F /  -2.9 °C 18.2 °F /  -7.7 °C 29.98in /  1015.1hPa SSW 2.0mph /  3.2km/h 5.0mph /  8km/h 70% 0.00in /  0mm
09:59 26.5 °F /  -3.1 °C 18.7 °F /  -7.4 °C 29.98in /  1015.1hPa SW 2.0mph /  3.2km/h 5.0mph /  8km/h 72% 0.00in /  0mm
10:04 26.9 °F /  -2.8 °C 18.1 °F /  -7.7 °C 29.97in /  1014.8hPa SW 1.0mph /  1.6km/h 3.0mph /  4.8km/h 69% 0.00in /  0mm
10:09 27.6 °F /  -2.4 °C 19.8 °F /  -6.8 °C 29.97in /  1014.8hPa SSW 1.0mph /  1.6km/h 4.0mph /  6.4km/h 72% 0.00in /  0mm
10:14 27.6 °F /  -2.4 °C 19.1 °F /  -7.2 °C 29.97in /  1014.8hPa SSW 2.0mph /  3.2km/h 6.0mph /  9.7km/h 70% 0.00in /  0mm
10:19 28.0 °F /  -2.2 °C 19.8 °F /  -6.8 °C 29.97in /  1014.8hPa SSE 2.0mph /  3.2km/h 6.0mph /  9.7km/h 71% 0.00in /  0mm
10:24 27.8 °F /  -2.3 °C 18.6 °F /  -7.4 °C 29.97in /  1014.8hPa South 2.0mph /  3.2km/h 5.0mph /  8km/h 68% 0.00in /  0mm
10:29 28.2 °F /  -2.1 °C 19.7 °F /  -6.8 °C 29.96in /  1014.4hPa South 2.0mph /  3.2km/h 7.0mph /  11.3km/h 70% 0.01in /  0.25mm
10:34 28.3 °F /  -2.1 °C 19.8 °F /  -6.8 °C 29.96in /  1014.4hPa South 2.0mph /  3.2km/h 7.0mph /  11.3km/h 70% 0.01in /  0.25mm
10:39 28.8 °F /  -1.8 °C 19.9 °F /  -6.7 °C 29.96in /  1014.4hPa South 3.0mph /  4.8km/h 7.0mph /  11.3km/h 69% 0.01in /  0.25mm
10:44 29.5 °F /  -1.4 °C 19.9 °F /  -6.7 °C 29.96in /  1014.4hPa SW 2.0mph /  3.2km/h 5.0mph /  8km/h 67% 0.01in /  0.25mm
10:49 29.3 °F /  -1.5 °C 19.7 °F /  -6.8 °C 29.96in /  1014.4hPa SSW 3.0mph /  4.8km/h 6.0mph /  9.7km/h 67% 0.01in /  0.25mm
10:54 29.8 °F /  -1.2 °C 20.5 °F /  -6.4 °C 29.96in /  1014.4hPa SSE 6.0mph /  9.7km/h 7.0mph /  11.3km/h 68% 0.01in /  0.25mm
10:59 30.4 °F /  -0.9 °C 20.4 °F /  -6.4 °C 29.95in /  1014.1hPa South 2.0mph /  3.2km/h 7.0mph /  11.3km/h 66% 0.01in /  0.25mm
11:04 30.2 °F /  -1 °C 19.8 °F /  -6.8 °C 29.95in /  1014.1hPa SW 1.0mph /  1.6km/h 8.0mph /  12.9km/h 65% 0.01in /  0.25mm
11:09 30.3 °F /  -0.9 °C 19.6 °F /  -6.9 °C 29.95in /  1014.1hPa South 2.0mph /  3.2km/h 8.0mph /  12.9km/h 64% 0.01in /  0.25mm
11:14 30.5 °F /  -0.8 °C 19.8 °F /  -6.8 °C 29.95in /  1014.1hPa SSW 2.0mph /  3.2km/h 5.0mph /  8km/h 64% 0.01in /  0.25mm
11:19 31.6 °F /  -0.2 °C 21.5 °F /  -5.8 °C 29.95in /  1014.1hPa SSE 3.0mph /  4.8km/h 5.0mph /  8km/h 66% 0.01in /  0.25mm
11:24 31.3 °F /  -0.4 °C 20.2 °F /  -6.6 °C 29.94in /  1013.8hPa SSW 3.0mph /  4.8km/h 7.0mph /  11.3km/h 63% 0.01in /  0.25mm
11:29 31.3 °F /  -0.4 °C 21.3 °F /  -5.9 °C 29.94in /  1013.8hPa South 3.0mph /  4.8km/h 6.0mph /  9.7km/h 66% 0.00in /  0mm
11:34 31.7 °F /  -0.2 °C 22.0 °F /  -5.6 °C 29.95in /  1014.1hPa West 4.0mph /  6.4km/h 5.0mph /  8km/h 67% 0.00in /  0mm
11:39 32.4 °F /  0.2 °C 21.6 °F /  -5.8 °C 29.95in /  1014.1hPa West 3.0mph /  4.8km/h 9.0mph /  14.5km/h 64% 0.00in /  0mm
11:44 32.1 °F /  0.1 °C 21.3 °F /  -5.9 °C 29.95in /  1014.1hPa SW 2.0mph /  3.2km/h 5.0mph /  8km/h 64% 0.00in /  0mm
11:49 32.2 °F /  0.1 °C 21.4 °F /  -5.9 °C 29.95in /  1014.1hPa WSW 5.0mph /  8km/h 7.0mph /  11.3km/h 64% 0.00in /  0mm
11:54 31.6 °F /  -0.2 °C 20.4 °F /  -6.4 °C 29.95in /  1014.1hPa SW 4.0mph /  6.4km/h 8.0mph /  12.9km/h 63% 0.00in /  0mm
11:59 31.3 °F /  -0.4 °C 20.5 °F /  -6.4 °C 29.95in /  1014.1hPa WSW 2.0mph /  3.2km/h 5.0mph /  8km/h 64% 0.00in /  0mm
12:04 32.8 °F /  0.4 °C 22.0 °F /  -5.6 °C 29.94in /  1013.8hPa SW 4.0mph /  6.4km/h 8.0mph /  12.9km/h 64% 0.00in /  0mm
12:09 32.8 °F /  0.4 °C 22.7 °F /  -5.2 °C 29.94in /  1013.8hPa West 4.0mph /  6.4km/h 7.0mph /  11.3km/h 66% 0.00in /  0mm
12:14 33.2 °F /  0.7 °C 21.2 °F /  -6 °C 29.94in /  1013.8hPa West 3.0mph /  4.8km/h 7.0mph /  11.3km/h 61% 0.00in /  0mm
12:19 33.6 °F /  0.9 °C 23.1 °F /  -4.9 °C 29.93in /  1013.4hPa WNW 3.0mph /  4.8km/h 6.0mph /  9.7km/h 65% 0.00in /  0mm
12:24 32.9 °F /  0.5 °C 21.3 °F /  -5.9 °C 29.93in /  1013.4hPa West 2.0mph /  3.2km/h 5.0mph /  8km/h 62% 0.00in /  0mm
12:29 32.8 °F /  0.4 °C 22.3 °F /  -5.4 °C 29.92in /  1013.1hPa SSW 2.0mph /  3.2km/h 8.0mph /  12.9km/h 65% 0.00in /  0mm
12:34 33.4 °F /  0.8 °C 22.1 °F /  -5.5 °C 29.91in /  1012.8hPa SW 3.0mph /  4.8km/h 8.0mph /  12.9km/h 63% 0.00in /  0mm
12:39 32.8 °F /  0.4 °C 21.2 °F /  -6 °C 29.91in /  1012.8hPa SW 3.0mph /  4.8km/h 6.0mph /  9.7km/h 62% 0.00in /  0mm
12:44 32.7 °F /  0.4 °C 21.9 °F /  -5.6 °C 29.90in /  1012.4hPa NNE 2.0mph /  3.2km/h 4.0mph /  6.4km/h 64% 0.00in /  0mm
12:49 33.1 °F /  0.6 °C 21.9 °F /  -5.6 °C 29.90in /  1012.4hPa North 1.0mph /  1.6km/h 4.0mph /  6.4km/h 63% 0.00in /  0mm
12:54 33.8 °F /  1 °C 21.8 °F /  -5.7 °C 29.91in /  1012.8hPa SW 3.0mph /  4.8km/h 6.0mph /  9.7km/h 61% 0.00in /  0mm
12:59 34.0 °F /  1.1 °C 21.6 °F /  -5.8 °C 29.91in /  1012.8hPa SSW 3.0mph /  4.8km/h 5.0mph /  8km/h 60% 0.00in /  0mm
13:04 34.0 °F /  1.1 °C 21.6 °F /  -5.8 °C 29.91in /  1012.8hPa SSW 2.0mph /  3.2km/h 5.0mph /  8km/h 60% 0.00in /  0mm
13:09 34.6 °F /  1.4 °C 20.9 °F /  -6.2 °C 29.91in /  1012.8hPa North 3.0mph /  4.8km/h 3.0mph /  4.8km/h 57% 0.00in /  0mm
13:14 34.3 °F /  1.3 °C 21.8 °F /  -5.7 °C 29.91in /  1012.8hPa NW 1.0mph /  1.6km/h 4.0mph /  6.4km/h 60% 0.00in /  0mm
13:19 34.7 °F /  1.5 °C 21.0 °F /  -6.1 °C 29.90in /  1012.4hPa WNW 2.0mph /  3.2km/h 5.0mph /  8km/h 57% 0.00in /  0mm
13:24 34.3 °F /  1.3 °C 19.8 °F /  -6.8 °C 29.90in /  1012.4hPa WSW 3.0mph /  4.8km/h 7.0mph /  11.3km/h 55% 0.00in /  0mm
13:29 34.9 °F /  1.6 °C 20.8 °F /  -6.2 °C 29.90in /  1012.4hPa WSW 3.0mph /  4.8km/h 7.0mph /  11.3km/h 56% 0.00in /  0mm
13:34 34.4 °F /  1.3 °C 19.5 °F /  -6.9 °C 29.89in /  1012.1hPa WSW 2.0mph /  3.2km/h 6.0mph /  9.7km/h 54% 0.00in /  0mm
13:39 34.8 °F /  1.6 °C 21.1 °F /  -6.1 °C 29.89in /  1012.1hPa WSW 2.0mph /  3.2km/h 6.0mph /  9.7km/h 57% 0.00in /  0mm
13:44 35.5 °F /  1.9 °C 19.6 °F /  -6.9 °C 29.89in /  1012.1hPa West 2.0mph /  3.2km/h 6.0mph /  9.7km/h 52% 0.00in /  0mm
13:49 36.0 °F /  2.2 °C 20.9 °F /  -6.2 °C 29.89in /  1012.1hPa SSE 2.0mph /  3.2km/h 5.0mph /  8km/h 54% 0.00in /  0mm
13:54 35.5 °F /  1.9 °C 20.9 °F /  -6.2 °C 29.89in /  1012.1hPa Calm   4.0mph /  6.4km/h 55% 0.00in /  0mm
13:59 36.1 °F /  2.3 °C 19.7 °F /  -6.8 °C 29.88in /  1011.7hPa SSW 2.0mph /  3.2km/h 5.0mph /  8km/h 51% 0.00in /  0mm
14:04 36.1 °F /  2.3 °C 21.5 °F /  -5.8 °C 29.88in /  1011.7hPa SSW 2.0mph /  3.2km/h 5.0mph /  8km/h 55% 0.00in /  0mm
14:09 35.9 °F /  2.2 °C 19.5 °F /  -6.9 °C 29.87in /  1011.4hPa ESE 3.0mph /  4.8km/h 4.0mph /  6.4km/h 51% 0.00in /  0mm
14:14 36.2 °F /  2.3 °C 21.1 °F /  -6.1 °C 29.87in /  1011.4hPa SSE 2.0mph /  3.2km/h 7.0mph /  11.3km/h 54% 0.00in /  0mm
14:19 35.7 °F /  2.1 °C 20.2 °F /  -6.6 °C 29.87in /  1011.4hPa Calm   3.0mph /  4.8km/h 53% 0.00in /  0mm
14:24 37.2 °F /  2.9 °C 22.9 °F /  -5.1 °C 29.87in /  1011.4hPa West 1.0mph /  1.6km/h 3.0mph /  4.8km/h 56% 0.00in /  0mm
14:29 36.7 °F /  2.6 °C 20.3 °F /  -6.5 °C 29.88in /  1011.7hPa West 1.0mph /  1.6km/h 3.0mph /  4.8km/h 51% 0.00in /  0mm
14:34 37.2 °F /  2.9 °C 21.2 °F /  -6 °C 29.87in /  1011.4hPa WSW 1.0mph /  1.6km/h 4.0mph /  6.4km/h 52% 0.00in /  0mm
14:39 36.9 °F /  2.7 °C 21.8 °F /  -5.7 °C 29.88in /  1011.7hPa SW 1.0mph /  1.6km/h 5.0mph /  8km/h 54% 0.00in /  0mm
14:49 37.5 °F /  3.1 °C 22.3 °F /  -5.4 °C 29.88in /  1011.7hPa WSW 2.0mph /  3.2km/h 5.0mph /  8km/h 54% 0.00in /  0mm
14:54 37.2 °F /  2.9 °C 22.5 °F /  -5.3 °C 29.88in /  1011.7hPa SSE 3.0mph /  4.8km/h 4.0mph /  6.4km/h 55% 0.00in /  0mm
14:59 37.0 °F /  2.8 °C 21.9 °F /  -5.6 °C 29.88in /  1011.7hPa SSW 1.0mph /  1.6km/h 4.0mph /  6.4km/h 54% 0.00in /  0mm
15:04 37.1 °F /  2.8 °C 22.4 °F /  -5.3 °C 29.88in /  1011.7hPa SW 5.0mph /  8km/h 6.0mph /  9.7km/h 55% 0.00in /  0mm
15:09 38.0 °F /  3.3 °C 23.7 °F /  -4.6 °C 29.87in /  1011.4hPa West 2.0mph /  3.2km/h 5.0mph /  8km/h 56% 0.00in /  0mm
15:14 37.7 °F /  3.2 °C 22.1 °F /  -5.5 °C 29.87in /  1011.4hPa SW 2.0mph /  3.2km/h 5.0mph /  8km/h 53% 0.00in /  0mm
15:19 38.1 °F /  3.4 °C 23.3 °F /  -4.8 °C 29.87in /  1011.4hPa WNW 1.0mph /  1.6km/h 4.0mph /  6.4km/h 55% 0.00in /  0mm
15:24 38.4 °F /  3.6 °C 23.6 °F /  -4.7 °C 29.86in /  1011.1hPa Calm   4.0mph /  6.4km/h 55% 0.00in /  0mm
15:29 38.3 °F /  3.5 °C 23.1 °F /  -4.9 °C 29.87in /  1011.4hPa SW 3.0mph /  4.8km/h 5.0mph /  8km/h 54% 0.00in /  0mm
15:34 38.6 °F /  3.7 °C 23.4 °F /  -4.8 °C 29.87in /  1011.4hPa SW 2.0mph /  3.2km/h 5.0mph /  8km/h 54% 0.00in /  0mm
15:39 38.3 °F /  3.5 °C 23.1 °F /  -4.9 °C 29.87in /  1011.4hPa SSW 2.0mph /  3.2km/h 5.0mph /  8km/h 54% 0.00in /  0mm
15:44 38.9 °F /  3.8 °C 23.7 °F /  -4.6 °C 29.86in /  1011.1hPa SSE 2.0mph /  3.2km/h 5.0mph /  8km/h 54% 0.00in /  0mm
15:49 39.0 °F /  3.9 °C 22.8 °F /  -5.1 °C 29.86in /  1011.1hPa ESE 2.0mph /  3.2km/h 6.0mph /  9.7km/h 52% 0.00in /  0mm
15:54 38.4 °F /  3.6 °C 23.6 °F /  -4.7 °C 29.86in /  1011.1hPa East 2.0mph /  3.2km/h 6.0mph /  9.7km/h 55% 0.00in /  0mm
15:59 38.4 °F /  3.6 °C 21.8 °F /  -5.7 °C 29.85in /  1010.7hPa ENE 1.0mph /  1.6km/h 5.0mph /  8km/h 51% 0.00in /  0mm
16:04 38.3 °F /  3.5 °C 22.2 °F /  -5.4 °C 29.86in /  1011.1hPa East 2.0mph /  3.2km/h 5.0mph /  8km/h 52% 0.00in /  0mm
16:09 38.5 °F /  3.6 °C 22.8 °F /  -5.1 °C 29.86in /  1011.1hPa SSE 3.0mph /  4.8km/h 5.0mph /  8km/h 53% 0.00in /  0mm
16:14 38.3 °F /  3.5 °C 21.3 °F /  -5.9 °C 29.86in /  1011.1hPa SSE 3.0mph /  4.8km/h 4.0mph /  6.4km/h 50% 0.00in /  0mm
16:19 38.0 °F /  3.3 °C 21.5 °F /  -5.8 °C 29.86in /  1011.1hPa South 2.0mph /  3.2km/h 5.0mph /  8km/h 51% 0.00in /  0mm
16:24 37.9 °F /  3.3 °C 21.4 °F /  -5.9 °C 29.86in /  1011.1hPa SSE 2.0mph /  3.2km/h 6.0mph /  9.7km/h 51% 0.00in /  0mm
16:29 38.1 °F /  3.4 °C 22.5 °F /  -5.3 °C 29.86in /  1011.1hPa SE 3.0mph /  4.8km/h 4.0mph /  6.4km/h 53% 0.00in /  0mm
16:34 38.0 °F /  3.3 °C 21.5 °F /  -5.8 °C 29.86in /  1011.1hPa Calm   3.0mph /  4.8km/h 51% 0.00in /  0mm
16:39 37.7 °F /  3.2 °C 21.2 °F /  -6 °C 29.86in /  1011.1hPa South 1.0mph /  1.6km/h 4.0mph /  6.4km/h 51% 0.00in /  0mm
16:44 37.8 °F /  3.2 °C 21.7 °F /  -5.7 °C 29.87in /  1011.4hPa South 1.0mph /  1.6km/h 4.0mph /  6.4km/h 52% 0.00in /  0mm
16:49 37.8 °F /  3.2 °C 21.7 °F /  -5.7 °C 29.86in /  1011.1hPa South 1.0mph /  1.6km/h 2.0mph /  3.2km/h 52% 0.00in /  0mm
16:54 37.8 °F /  3.2 °C 21.7 °F /  -5.7 °C 29.85in /  1010.7hPa South 1.0mph /  1.6km/h 3.0mph /  4.8km/h 52% 0.00in /  0mm
16:59 38.0 °F /  3.3 °C 22.4 °F /  -5.3 °C 29.85in /  1010.7hPa South 2.0mph /  3.2km/h 3.0mph /  4.8km/h 53% 0.00in /  0mm
17:04 38.0 °F /  3.3 °C 21.9 °F /  -5.6 °C 29.85in /  1010.7hPa SE 2.0mph /  3.2km/h 2.0mph /  3.2km/h 52% 0.00in /  0mm
17:09 37.9 °F /  3.3 °C 22.3 °F /  -5.4 °C 29.85in /  1010.7hPa Calm   2.0mph /  3.2km/h 53% 0.00in /  0mm
17:14 37.8 °F /  3.2 °C 22.2 °F /  -5.4 °C 29.85in /  1010.7hPa Calm   2.0mph /  3.2km/h 53% 0.00in /  0mm
17:19 37.7 °F /  3.2 °C 22.1 °F /  -5.5 °C 29.85in /  1010.7hPa Calm   2.0mph /  3.2km/h 53% 0.00in /  0mm
17:24 37.6 °F /  3.1 °C 22.0 °F /  -5.6 °C 29.85in /  1010.7hPa SE 1.0mph /  1.6km/h 2.0mph /  3.2km/h 53% 0.00in /  0mm
17:29 37.6 °F /  3.1 °C 21.5 °F /  -5.8 °C 29.85in /  1010.7hPa Calm     52% 0.00in /  0mm
17:34 37.6 °F /  3.1 °C 21.5 °F /  -5.8 °C 29.85in /  1010.7hPa Calm     52% 0.00in /  0mm
17:39 37.5 °F /  3.1 °C 21.9 °F /  -5.6 °C 29.85in /  1010.7hPa Calm     53% 0.00in /  0mm
17:44 37.3 °F /  2.9 °C 21.7 °F /  -5.7 °C 29.85in /  1010.7hPa Calm     53% 0.00in /  0mm
17:49 37.2 °F /  2.9 °C 22.1 °F /  -5.5 °C 29.85in /  1010.7hPa Calm     54% 0.00in /  0mm
17:54 37.2 °F /  2.9 °C 22.1 °F /  -5.5 °C 29.85in /  1010.7hPa Calm     54% 0.00in /  0mm
17:59 37.1 °F /  2.8 °C 22.4 °F /  -5.3 °C 29.85in /  1010.7hPa Calm     55% 0.00in /  0mm
18:04 36.9 °F /  2.7 °C 22.7 °F /  -5.2 °C 29.85in /  1010.7hPa Calm     56% 0.00in /  0mm
18:09 36.8 °F /  2.7 °C 22.6 °F /  -5.2 °C 29.85in /  1010.7hPa Calm     56% 0.00in /  0mm
18:14 36.7 °F /  2.6 °C 22.9 °F /  -5.1 °C 29.85in /  1010.7hPa Calm     57% 0.00in /  0mm
18:19 36.5 °F /  2.5 °C 22.7 °F /  -5.2 °C 29.86in /  1011.1hPa Calm     57% 0.00in /  0mm
18:24 36.6 °F /  2.6 °C 23.2 °F /  -4.9 °C 29.85in /  1010.7hPa NE 1.0mph /  1.6km/h 5.0mph /  8km/h 58% 0.00in /  0mm
18:29 36.7 °F /  2.6 °C 23.3 °F /  -4.8 °C 29.85in /  1010.7hPa ENE 2.0mph /  3.2km/h 5.0mph /  8km/h 58% 0.00in /  0mm
18:34 36.6 °F /  2.6 °C 23.2 °F /  -4.9 °C 29.85in /  1010.7hPa Calm   3.0mph /  4.8km/h 58% 0.00in /  0mm
18:39 36.5 °F /  2.5 °C 23.1 °F /  -4.9 °C 29.85in /  1010.7hPa ENE 1.0mph /  1.6km/h 3.0mph /  4.8km/h 58% 0.00in /  0mm
18:44 36.3 °F /  2.4 °C 23.3 °F /  -4.8 °C 29.84in /  1010.4hPa East 2.0mph /  3.2km/h 5.0mph /  8km/h 59% 0.00in /  0mm
18:49 36.1 °F /  2.3 °C 23.1 °F /  -4.9 °C 29.84in /  1010.4hPa East 1.0mph /  1.6km/h 5.0mph /  8km/h 59% 0.00in /  0mm
18:54 35.9 °F /  2.2 °C 23.0 °F /  -5 °C 29.83in /  1010hPa East 1.0mph /  1.6km/h 3.0mph /  4.8km/h 59% 0.00in /  0mm
18:59 35.7 °F /  2.1 °C 23.2 °F /  -4.9 °C 29.83in /  1010hPa East 1.0mph /  1.6km/h 3.0mph /  4.8km/h 60% 0.00in /  0mm
19:04 35.6 °F /  2 °C 23.1 °F /  -4.9 °C 29.83in /  1010hPa East 1.0mph /  1.6km/h 3.0mph /  4.8km/h 60% 0.00in /  0mm
19:09 35.5 °F /  1.9 °C 23.4 °F /  -4.8 °C 29.83in /  1010hPa Calm   4.0mph /  6.4km/h 61% 0.00in /  0mm
19:14 35.4 °F /  1.9 °C 23.3 °F /  -4.8 °C 29.83in /  1010hPa Calm     61% 0.00in /  0mm
19:19 35.3 °F /  1.8 °C 23.2 °F /  -4.9 °C 29.83in /  1010hPa Calm   1.0mph /  1.6km/h 61% 0.00in /  0mm
19:24 35.2 °F /  1.8 °C 23.1 °F /  -4.9 °C 29.83in /  1010hPa Calm     61% 0.00in /  0mm
19:29 35.0 °F /  1.7 °C 23.3 °F /  -4.8 °C 29.83in /  1010hPa Calm     62% 0.00in /  0mm
19:34 34.9 °F /  1.6 °C 23.2 °F /  -4.9 °C 29.83in /  1010hPa Calm     62% 0.00in /  0mm
19:39 34.9 °F /  1.6 °C 23.2 °F /  -4.9 °C 29.83in /  1010hPa Calm     62% 0.00in /  0mm
19:44 34.9 °F /  1.6 °C 23.2 °F /  -4.9 °C 29.82in /  1009.7hPa Calm     62% 0.00in /  0mm
19:49 35.0 °F /  1.7 °C 23.7 °F /  -4.6 °C 29.82in /  1009.7hPa Calm   2.0mph /  3.2km/h 63% 0.00in /  0mm
19:54 35.0 °F /  1.7 °C 23.3 °F /  -4.8 °C 29.82in /  1009.7hPa East 1.0mph /  1.6km/h 3.0mph /  4.8km/h 62% 0.00in /  0mm
19:59 34.9 °F /  1.6 °C 23.6 °F /  -4.7 °C 29.82in /  1009.7hPa East 1.0mph /  1.6km/h 3.0mph /  4.8km/h 63% 0.00in /  0mm
20:04 34.8 °F /  1.6 °C 23.5 °F /  -4.7 °C 29.83in /  1010hPa ENE 2.0mph /  3.2km/h 4.0mph /  6.4km/h 63% 0.00in /  0mm
20:09 34.8 °F /  1.6 °C 23.5 °F /  -4.7 °C 29.82in /  1009.7hPa ENE 1.0mph /  1.6km/h 4.0mph /  6.4km/h 63% 0.00in /  0mm
20:14 34.9 °F /  1.6 °C 23.2 °F /  -4.9 °C 29.83in /  1010hPa East 1.0mph /  1.6km/h 4.0mph /  6.4km/h 62% 0.00in /  0mm
20:19 34.9 °F /  1.6 °C 23.2 °F /  -4.9 °C 29.82in /  1009.7hPa East 2.0mph /  3.2km/h 5.0mph /  8km/h 62% 0.00in /  0mm
20:24 34.8 °F /  1.6 °C 23.1 °F /  -4.9 °C 29.82in /  1009.7hPa East 1.0mph /  1.6km/h 5.0mph /  8km/h 62% 0.00in /  0mm
20:29 34.6 °F /  1.4 °C 22.9 °F /  -5.1 °C 29.81in /  1009.4hPa Calm   3.0mph /  4.8km/h 62% 0.00in /  0mm
20:34 34.6 °F /  1.4 °C 23.3 °F /  -4.8 °C 29.81in /  1009.4hPa Calm   3.0mph /  4.8km/h 63% 0.00in /  0mm
20:39 34.3 °F /  1.3 °C 23.4 °F /  -4.8 °C 29.82in /  1009.7hPa ENE 2.0mph /  3.2km/h 4.0mph /  6.4km/h 64% 0.00in /  0mm
20:44 34.3 °F /  1.3 °C 23.4 °F /  -4.8 °C 29.82in /  1009.7hPa NE 4.0mph /  6.4km/h 4.0mph /  6.4km/h 64% 0.00in /  0mm
20:49 34.2 °F /  1.2 °C 23.3 °F /  -4.8 °C 29.82in /  1009.7hPa ENE 2.0mph /  3.2km/h 4.0mph /  6.4km/h 64% 0.00in /  0mm
20:54 34.1 °F /  1.2 °C 23.2 °F /  -4.9 °C 29.81in /  1009.4hPa ENE 2.0mph /  3.2km/h 6.0mph /  9.7km/h 64% 0.00in /  0mm
20:59 34.0 °F /  1.1 °C 23.5 °F /  -4.7 °C 29.81in /  1009.4hPa East 2.0mph /  3.2km/h 6.0mph /  9.7km/h 65% 0.00in /  0mm
21:04 33.9 °F /  1.1 °C 23.4 °F /  -4.8 °C 29.81in /  1009.4hPa East 1.0mph /  1.6km/h 3.0mph /  4.8km/h 65% 0.00in /  0mm
21:09 33.8 °F /  1 °C 23.3 °F /  -4.8 °C 29.81in /  1009.4hPa ESE 1.0mph /  1.6km/h 3.0mph /  4.8km/h 65% 0.00in /  0mm
21:14 33.6 °F /  0.9 °C 23.1 °F /  -4.9 °C 29.80in /  1009hPa ESE 1.0mph /  1.6km/h 5.0mph /  8km/h 65% 0.00in /  0mm
21:19 33.5 °F /  0.8 °C 23.4 °F /  -4.8 °C 29.80in /  1009hPa ESE 2.0mph /  3.2km/h 5.0mph /  8km/h 66% 0.00in /  0mm
21:24 33.4 °F /  0.8 °C 23.3 °F /  -4.8 °C 29.80in /  1009hPa ESE 2.0mph /  3.2km/h 3.0mph /  4.8km/h 66% 0.00in /  0mm
21:34 33.4 °F /  0.8 °C 23.3 °F /  -4.8 °C 29.81in /  1009.4hPa Calm   1.0mph /  1.6km/h 66% 0.00in /  0mm
21:39 33.4 °F /  0.8 °C 23.6 °F /  -4.7 °C 29.81in /  1009.4hPa SE 2.0mph /  3.2km/h 3.0mph /  4.8km/h 67% 0.00in /  0mm
21:44 33.5 °F /  0.8 °C 23.4 °F /  -4.8 °C 29.80in /  1009hPa East 2.0mph /  3.2km/h 3.0mph /  4.8km/h 66% 0.00in /  0mm
21:49 33.4 °F /  0.8 °C 23.6 °F /  -4.7 °C 29.80in /  1009hPa ESE 1.0mph /  1.6km/h 3.0mph /  4.8km/h 67% 0.00in /  0mm
21:54 33.4 °F /  0.8 °C 23.6 °F /  -4.7 °C 29.80in /  1009hPa ESE 1.0mph /  1.6km/h 3.0mph /  4.8km/h 67% 0.00in /  0mm
21:59 33.3 °F /  0.7 °C 23.9 °F /  -4.5 °C 29.80in /  1009hPa ESE 1.0mph /  1.6km/h 3.0mph /  4.8km/h 68% 0.00in /  0mm
22:04 33.3 °F /  0.7 °C 23.9 °F /  -4.5 °C 29.80in /  1009hPa ESE 1.0mph /  1.6km/h 2.0mph /  3.2km/h 68% 0.00in /  0mm
22:09 33.4 °F /  0.8 °C 24.0 °F /  -4.4 °C 29.79in /  1008.7hPa SE 1.0mph /  1.6km/h 3.0mph /  4.8km/h 68% 0.00in /  0mm
22:14 33.4 °F /  0.8 °C 24.0 °F /  -4.4 °C 29.80in /  1009hPa ESE 1.0mph /  1.6km/h 3.0mph /  4.8km/h 68% 0.00in /  0mm
22:19 33.3 °F /  0.7 °C 23.9 °F /  -4.5 °C 29.79in /  1008.7hPa Calm   1.0mph /  1.6km/h 68% 0.00in /  0mm
22:24 33.4 °F /  0.8 °C 24.0 °F /  -4.4 °C 29.78in /  1008.4hPa Calm   2.0mph /  3.2km/h 68% 0.00in /  0mm
22:29 33.6 °F /  0.9 °C 24.2 °F /  -4.3 °C 29.78in /  1008.4hPa SE 1.0mph /  1.6km/h 3.0mph /  4.8km/h 68% 0.00in /  0mm
22:34 33.6 °F /  0.9 °C 24.2 °F /  -4.3 °C 29.78in /  1008.4hPa SE 1.0mph /  1.6km/h 3.0mph /  4.8km/h 68% 0.00in /  0mm
22:39 33.7 °F /  0.9 °C 24.3 °F /  -4.3 °C 29.78in /  1008.4hPa Calm   1.0mph /  1.6km/h 68% 0.00in /  0mm
22:44 33.8 °F /  1 °C 24.4 °F /  -4.2 °C 29.77in /  1008hPa Calm   1.0mph /  1.6km/h 68% 0.00in /  0mm
22:49 33.8 °F /  1 °C 24.4 °F /  -4.2 °C 29.77in /  1008hPa Calm     68% 0.00in /  0mm
22:54 33.7 °F /  0.9 °C 24.6 °F /  -4.1 °C 29.77in /  1008hPa Calm   1.0mph /  1.6km/h 69% 0.00in /  0mm
22:59 33.8 °F /  1 °C 24.7 °F /  -4.1 °C 29.77in /  1008hPa Calm     69% 0.00in /  0mm
23:04 33.8 °F /  1 °C 24.7 °F /  -4.1 °C 29.76in /  1007.7hPa Calm     69% 0.00in /  0mm
23:09 33.8 °F /  1 °C 24.7 °F /  -4.1 °C 29.76in /  1007.7hPa ESE 1.0mph /  1.6km/h 3.0mph /  4.8km/h 69% 0.00in /  0mm
23:14 33.8 °F /  1 °C 24.7 °F /  -4.1 °C 29.76in /  1007.7hPa ESE 1.0mph /  1.6km/h 2.0mph /  3.2km/h 69% 0.00in /  0mm
23:19 33.8 °F /  1 °C 25.0 °F /  -3.9 °C 29.75in /  1007.3hPa ESE 1.0mph /  1.6km/h 2.0mph /  3.2km/h 70% 0.00in /  0mm
23:24 33.9 °F /  1.1 °C 24.8 °F /  -4 °C 29.75in /  1007.3hPa Calm   2.0mph /  3.2km/h 69% 0.00in /  0mm
23:29 34.1 °F /  1.2 °C 25.0 °F /  -3.9 °C 29.75in /  1007.3hPa Calm   1.0mph /  1.6km/h 69% 0.00in /  0mm
23:34 34.1 °F /  1.2 °C 25.0 °F /  -3.9 °C 29.75in /  1007.3hPa Calm   2.0mph /  3.2km/h 69% 0.00in /  0mm
23:39 34.3 °F /  1.3 °C 25.2 °F /  -3.8 °C 29.75in /  1007.3hPa Calm   2.0mph /  3.2km/h 69% 0.00in /  0mm
23:44 34.5 °F /  1.4 °C 25.4 °F /  -3.7 °C 29.75in /  1007.3hPa Calm   2.0mph /  3.2km/h 69% 0.00in /  0mm
23:49 34.6 °F /  1.4 °C 25.5 °F /  -3.6 °C 29.75in /  1007.3hPa Calm     69% 0.00in /  0mm
23:54 34.6 °F /  1.4 °C 25.5 °F /  -3.6 °C 29.75in /  1007.3hPa Calm     69% 0.00in /  0mm
23:59 34.8 °F /  1.6 °C 25.7 °F /  -3.5 °C 29.75in /  1007.3hPa Calm   2.0mph /  3.2km/h 69% 0.00in /  0mm
Buffalo, New York, USA
Compliments of Weather Underground - 2.5 mb